This is the latest recevied weather packets stored in our database for station/object HS5SQI-2. If no packets are shown the sender has not sent any weather packets the latest 10 day(s).
| Time | Temp. | Humidity | Pressure | Rain* | Wind** | Luminosity | Snow |
|---|---|---|---|---|---|---|---|
| 1777858099 | 34.44° C | 72% | 1009 hPa | - | - | 0 W/m² | - |
| 1777857477 | 34.44° C | 73% | 1009 hPa | - | - | 0 W/m² | - |
| 1777856855 | 33.89° C | 75% | 1008 hPa | - | - | 0 W/m² | - |
| 1777856233 | 33.89° C | 75% | 1008 hPa | - | - | 0 W/m² | - |
| 1777855611 | 33.33° C | 78% | 1008 hPa | - | - | 0 W/m² | - |
| 1777854989 | 32.78° C | 79% | 1008 hPa | - | - | 0 W/m² | - |
| 1777854367 | 32.22° C | 85% | 1008 hPa | - | - | 0 W/m² | - |
| 1777853745 | 31.11° C | 92% | 1008 hPa | - | - | 0 W/m² | - |
| 1777852628 | 31.11° C | 92% | 1007 hPa | - | - | 0 W/m² | - |
| 1777852005 | 29.44° C | 99% | 1007 hPa | - | - | 0 W/m² | - |
| 1777842013 | 32.78° C | 74% | 1006 hPa | - | - | 0 W/m² | - |
| 1777841391 | 32.78° C | 74% | 1006 hPa | - | - | 0 W/m² | - |
| 1777840769 | 31.67° C | 77% | 1006 hPa | - | - | 0 W/m² | - |
| 1777840147 | 32.78° C | 74% | 1006 hPa | - | - | 0 W/m² | - |
| 1777839525 | 32.22° C | 75% | 1006 hPa | - | - | 0 W/m² | - |
| 1777838903 | 32.78° C | 73% | 1006 hPa | - | - | 0 W/m² | - |
| 1777838281 | 32.78° C | 74% | 1006 hPa | - | - | 0 W/m² | - |
| 1777837659 | 33.33° C | 72% | 1006 hPa | - | - | 0 W/m² | - |
| 1777837037 | 32.78° C | 74% | 1006 hPa | - | - | 0 W/m² | - |
| 1777836415 | 33.33° C | 72% | 1006 hPa | - | - | 0 W/m² | - |
| 1777835793 | 33.33° C | 72% | 1007 hPa | - | - | 0 W/m² | - |
| 1777835171 | 32.78° C | 73% | 1007 hPa | - | - | 0 W/m² | - |
| 1777834549 | 32.78° C | 73% | 1007 hPa | - | - | 0 W/m² | - |
| 1777833927 | 32.22° C | 76% | 1007 hPa | - | - | 0 W/m² | - |
| 1777833304 | 32.78° C | 74% | 1007 hPa | - | - | 0 W/m² | - |
* Rain since midnight (hover to see other rain measurements)
** Current wind speed in m/s (hover to see current wind gust speed)